createdAt,value
2019-02-07T00:01:26.717Z,34.43
2019-02-07T00:03:56.079Z,42.70
2019-02-07T00:06:25.622Z,41.50
2019-02-07T00:08:54.578Z,38.10
2019-02-07T00:11:24.218Z,44.27
2019-02-07T00:13:53.450Z,35.33
2019-02-07T00:16:23.327Z,33.53
2019-02-07T00:18:52.631Z,34.97
2019-02-07T00:21:22.342Z,35.07
2019-02-07T00:23:51.840Z,38.40
2019-02-07T00:26:21.138Z,39.77
2019-02-07T00:28:50.646Z,34.50
2019-02-07T00:31:20.262Z,38.30
2019-02-07T00:33:49.451Z,36.23
2019-02-07T00:36:18.955Z,36.47
2019-02-07T00:38:48.511Z,31.43
2019-02-07T00:41:17.794Z,36.10
2019-02-07T00:43:47.058Z,31.47
2019-02-07T00:46:16.816Z,38.70
2019-02-07T00:48:46.061Z,41.83
2019-02-07T00:51:15.362Z,39.73
2019-02-07T00:53:44.562Z,40.23
2019-02-07T00:56:13.858Z,47.70
2019-02-07T00:58:43.063Z,37.30
2019-02-07T01:01:12.756Z,37.97
2019-02-07T01:03:41.706Z,35.17
2019-02-07T01:06:11.054Z,45.30
2019-02-07T01:08:40.250Z,40.00
2019-02-07T01:11:09.281Z,38.17
2019-02-07T01:13:38.851Z,42.13
2019-02-07T01:16:08.463Z,32.10
2019-02-07T01:18:37.499Z,36.63
2019-02-07T01:21:06.678Z,41.23
2019-02-07T01:23:36.377Z,45.00
2019-02-07T01:26:06.171Z,37.67
2019-02-07T01:28:35.222Z,42.13
2019-02-07T01:31:04.573Z,40.13
2019-02-07T01:33:33.775Z,39.33
2019-02-07T01:36:02.654Z,30.80
2019-02-07T01:38:31.561Z,32.90
2019-02-07T01:41:00.463Z,44.17
2019-02-07T01:43:29.492Z,39.27
2019-02-07T01:45:59.320Z,37.90
2019-02-07T01:48:28.525Z,35.50
2019-02-07T01:50:57.536Z,39.57
2019-02-07T01:53:26.706Z,35.53
2019-02-07T01:55:55.511Z,38.33
2019-02-07T01:58:25.098Z,36.40
2019-02-07T02:00:54.615Z,37.27
2019-02-07T02:03:24.118Z,32.57
2019-02-07T02:05:53.073Z,32.43
2019-02-07T02:08:22.402Z,35.43
2019-02-07T02:10:51.394Z,33.63
2019-02-07T02:13:20.347Z,34.97
2019-02-07T02:15:49.705Z,35.20
2019-02-07T02:18:18.834Z,34.20
2019-02-07T02:20:47.816Z,34.83
2019-02-07T02:23:16.793Z,37.20
2019-02-07T02:25:45.751Z,33.63
2019-02-07T02:28:14.617Z,35.37
2019-02-07T02:30:44.252Z,33.00
2019-02-07T02:33:13.145Z,30.07
2019-02-07T02:35:42.150Z,30.63
2019-02-07T02:38:10.995Z,33.97
2019-02-07T02:40:40.025Z,29.53
2019-02-07T02:43:09.258Z,32.93
2019-02-07T02:45:38.419Z,32.40
2019-02-07T02:48:07.522Z,33.00
2019-02-07T02:50:37.008Z,26.50
2019-02-07T02:53:06.311Z,31.50
2019-02-07T02:55:37.945Z,38.47
2019-02-07T02:58:07.471Z,33.33
2019-02-07T03:00:54.234Z,38.63
2019-02-07T03:03:41.024Z,35.70
2019-02-07T03:06:47.458Z,32.10
2019-02-07T03:09:34.786Z,31.30
2019-02-07T03:12:38.565Z,27.87
2019-02-07T03:15:27.185Z,26.10
2019-02-07T03:18:10.062Z,27.03
2019-02-07T03:21:01.176Z,27.20
2019-02-07T03:23:45.968Z,29.53
2019-02-07T03:26:52.969Z,30.63
2019-02-07T03:29:41.855Z,31.33
2019-02-07T03:32:22.027Z,35.37
2019-02-07T03:35:10.562Z,31.73
2019-02-07T03:37:58.223Z,34.10
2019-02-07T03:40:41.744Z,27.47
2019-02-07T03:43:29.814Z,34.00
2019-02-07T03:46:07.062Z,27.80
2019-02-07T03:48:54.083Z,25.83
2019-02-07T03:51:41.532Z,27.13
2019-02-07T03:54:20.839Z,28.97
2019-02-07T03:57:19.333Z,26.23
2019-02-07T04:00:01.726Z,25.50
2019-02-07T04:02:48.746Z,25.43
2019-02-07T04:05:40.983Z,27.07
2019-02-07T04:08:29.333Z,23.83
2019-02-07T04:11:20.413Z,33.17
2019-02-07T04:13:57.631Z,26.80
2019-02-07T04:16:48.491Z,23.67
2019-02-07T04:19:45.868Z,35.60
2019-02-07T04:22:40.062Z,26.07
2019-02-07T04:25:26.679Z,26.90
2019-02-07T04:28:17.472Z,34.03
2019-02-07T04:31:18.211Z,32.67
2019-02-07T04:33:57.138Z,32.83
2019-02-07T04:36:44.558Z,35.93
2019-02-07T04:39:22.291Z,40.17
2019-02-07T04:42:01.205Z,37.00
2019-02-07T04:45:04.485Z,35.00
2019-02-07T04:47:45.862Z,34.77
2019-02-07T04:50:32.871Z,41.37
2019-02-07T04:53:30.087Z,34.03
2019-02-07T04:56:18.083Z,40.40
2019-02-07T04:58:55.965Z,37.57
2019-02-07T05:01:53.129Z,46.93
2019-02-07T05:04:50.148Z,38.57
2019-02-07T05:07:44.035Z,31.83
2019-02-07T05:10:31.802Z,36.70
2019-02-07T05:13:32.502Z,33.60
2019-02-07T05:16:21.378Z,31.53
2019-02-07T05:19:18.173Z,41.37
2019-02-07T05:22:06.686Z,35.40
2019-02-07T05:24:55.781Z,50.13
2019-02-07T05:27:46.026Z,31.13
2019-02-07T05:30:32.647Z,42.93
2019-02-07T05:33:25.938Z,33.27
2019-02-07T05:36:14.427Z,40.17
2019-02-07T05:39:16.838Z,36.27
2019-02-07T05:41:56.083Z,37.00
2019-02-07T05:44:46.779Z,33.13
2019-02-07T05:47:39.443Z,40.63
2019-02-07T05:50:28.057Z,39.00
2019-02-07T05:53:16.099Z,35.97
2019-02-07T05:56:13.799Z,40.60
2019-02-07T05:58:59.572Z,39.47
2019-02-07T06:01:52.750Z,32.63
2019-02-07T06:04:41.788Z,35.50
2019-02-07T06:07:39.104Z,43.53
2019-02-07T06:10:37.961Z,31.83
2019-02-07T06:13:18.978Z,36.77
2019-02-07T06:16:07.281Z,31.73
2019-02-07T06:19:06.207Z,38.10
2019-02-07T06:21:42.901Z,37.80
2019-02-07T06:24:33.918Z,36.60
2019-02-07T06:27:22.443Z,36.67
2019-02-07T06:30:00.037Z,41.70
2019-02-07T06:33:03.346Z,31.33
2019-02-07T06:35:40.503Z,43.17
2019-02-07T06:38:28.490Z,40.37
2019-02-07T06:41:13.726Z,39.97
2019-02-07T06:44:04.466Z,41.63
2019-02-07T06:46:53.382Z,40.17
2019-02-07T06:49:40.292Z,38.70
2019-02-07T06:52:28.915Z,44.87
2019-02-07T06:55:16.048Z,42.83
2019-02-07T06:57:57.054Z,35.27
2019-02-07T07:00:44.055Z,45.70
2019-02-07T07:03:32.714Z,41.10
2019-02-07T07:06:23.927Z,40.47
2019-02-07T07:09:05.306Z,42.47
2019-02-07T07:11:50.990Z,44.80
2019-02-07T07:14:32.674Z,48.63
2019-02-07T07:17:25.402Z,43.97
2019-02-07T07:20:09.131Z,40.50
2019-02-07T07:22:56.287Z,48.33
2019-02-07T07:25:44.279Z,46.27
2019-02-07T07:28:25.401Z,47.57
2019-02-07T07:31:12.714Z,48.67
2019-02-07T07:34:06.287Z,46.13
2019-02-07T07:37:06.351Z,47.00
2019-02-07T07:39:55.171Z,55.60
2019-02-07T07:42:58.394Z,52.13
2019-02-07T07:45:44.854Z,47.47
2019-02-07T07:48:32.203Z,49.00
2019-02-07T07:51:27.073Z,59.27
2019-02-07T07:54:15.323Z,53.50
2019-02-07T07:57:10.335Z,53.50
2019-02-07T07:59:51.397Z,60.13
2019-02-07T08:02:38.214Z,50.67
2019-02-07T08:05:16.718Z,49.93
2019-02-07T08:08:17.034Z,54.93
2019-02-07T08:10:57.614Z,50.50
2019-02-07T08:13:48.722Z,36.97
2019-02-07T08:16:41.989Z,54.13
2019-02-07T08:19:30.055Z,47.03
2019-02-07T08:22:08.031Z,49.80
2019-02-07T08:25:08.536Z,53.63
2019-02-07T08:28:02.922Z,43.30
2019-02-07T08:30:40.635Z,46.23
2019-02-07T08:33:27.766Z,48.53
2019-02-07T08:36:25.622Z,49.30
2019-02-07T08:39:13.979Z,47.13
2019-02-07T08:41:53.819Z,47.63
2019-02-07T08:44:55.510Z,49.60
2019-02-07T08:47:58.432Z,47.90
2019-02-07T08:50:56.028Z,48.83
2019-02-07T08:53:50.158Z,55.27
2019-02-07T08:56:38.966Z,44.07
2019-02-07T08:59:33.350Z,42.17
2019-02-07T09:02:37.278Z,40.77
2019-02-07T09:05:38.217Z,42.53
2019-02-07T09:08:33.242Z,42.50
2019-02-07T09:11:20.498Z,41.93
2019-02-07T09:14:07.140Z,41.23
2019-02-07T09:16:54.255Z,54.23
2019-02-07T09:19:46.186Z,46.73
2019-02-07T09:22:33.386Z,42.27
2019-02-07T09:25:34.470Z,45.20
2019-02-07T09:28:21.854Z,44.37
2019-02-07T09:31:10.223Z,46.10
2019-02-07T09:34:05.827Z,46.70
2019-02-07T09:36:52.748Z,47.27
2019-02-07T09:39:31.875Z,40.77
2019-02-07T09:42:27.499Z,44.90
2019-02-07T09:45:10.770Z,40.37
2019-02-07T09:48:09.100Z,46.50
2019-02-07T09:50:50.366Z,45.40
2019-02-07T09:53:31.762Z,41.20
2019-02-07T09:56:20.818Z,41.70
2019-02-07T09:59:14.903Z,34.30
2019-02-07T10:01:51.831Z,44.47
2019-02-07T10:04:38.591Z,39.30
2019-02-07T10:07:29.593Z,40.53
2019-02-07T10:10:16.198Z,41.27
2019-02-07T10:13:23.083Z,44.17
2019-02-07T10:16:07.846Z,46.67
2019-02-07T10:18:53.323Z,42.30
2019-02-07T10:21:37.258Z,42.07
2019-02-07T10:24:25.339Z,37.73
2019-02-07T10:27:20.506Z,42.57
2019-02-07T10:30:02.214Z,39.93
2019-02-07T10:32:45.930Z,43.10
2019-02-07T10:35:39.785Z,41.43
2019-02-07T10:38:27.793Z,43.43
2019-02-07T10:41:14.458Z,45.67
2019-02-07T10:43:49.994Z,42.10
2019-02-07T10:46:47.567Z,40.93
2019-02-07T10:49:40.614Z,47.07
2019-02-07T10:52:28.670Z,42.90
2019-02-07T10:55:09.620Z,44.20
2019-02-07T10:57:48.863Z,39.60
2019-02-07T11:00:41.811Z,39.87
2019-02-07T11:03:26.506Z,39.20
2019-02-07T11:06:13.486Z,45.73
2019-02-07T11:09:13.682Z,35.43
2019-02-07T11:11:54.071Z,38.63
2019-02-07T11:14:45.330Z,46.43
2019-02-07T11:17:32.006Z,41.13
2019-02-07T11:20:19.039Z,38.00
2019-02-07T11:23:05.811Z,41.17
2019-02-07T11:25:53.074Z,35.80
2019-02-07T11:28:50.201Z,41.30
2019-02-07T11:31:39.493Z,40.13
2019-02-07T11:34:35.662Z,40.60
2019-02-07T11:37:27.013Z,37.10
2019-02-07T11:40:21.337Z,42.13
2019-02-07T11:43:02.562Z,43.07
2019-02-07T11:45:49.160Z,40.50
2019-02-07T11:48:34.994Z,44.53
2019-02-07T11:51:26.254Z,40.63
2019-02-07T11:54:26.538Z,37.07
2019-02-07T11:57:20.915Z,37.67
2019-02-07T12:00:07.781Z,42.27
2019-02-07T12:02:47.617Z,38.10
2019-02-07T12:05:37.319Z,40.97
2019-02-07T12:08:20.853Z,41.57
2019-02-07T12:11:14.621Z,40.23
2019-02-07T12:13:59.550Z,38.27
2019-02-07T12:16:41.385Z,40.07
2019-02-07T12:19:27.983Z,39.67
2019-02-07T12:22:16.387Z,42.43
2019-02-07T12:25:19.887Z,37.13
2019-02-07T12:28:11.882Z,43.90
2019-02-07T12:30:58.394Z,39.60
2019-02-07T12:33:52.471Z,44.40
2019-02-07T12:36:40.700Z,42.57
2019-02-07T12:39:44.642Z,46.07
2019-02-07T12:42:26.601Z,40.87
2019-02-07T12:45:23.949Z,42.97
2019-02-07T12:48:06.050Z,43.40
2019-02-07T12:50:52.877Z,41.33
2019-02-07T12:53:39.699Z,44.33
2019-02-07T12:56:40.247Z,44.27
2019-02-07T12:59:30.605Z,45.20
2019-02-07T13:02:09.722Z,43.57
2019-02-07T13:05:00.551Z,46.43
2019-02-07T13:08:04.946Z,42.90
2019-02-07T13:10:55.475Z,44.17
2019-02-07T13:13:49.913Z,43.93
2019-02-07T13:16:37.554Z,43.43
2019-02-07T13:19:24.173Z,42.20
2019-02-07T13:22:19.333Z,44.43
2019-02-07T13:25:26.704Z,49.90
2019-02-07T13:28:20.754Z,52.20
2019-02-07T13:31:07.709Z,47.07
2019-02-07T13:34:05.084Z,45.97
2019-02-07T13:36:48.352Z,48.70
2019-02-07T13:39:49.548Z,51.83
2019-02-07T13:42:46.639Z,44.47
2019-02-07T13:45:29.386Z,46.40
2019-02-07T13:48:09.771Z,48.10
2019-02-07T13:51:12.884Z,55.07
2019-02-07T13:53:48.650Z,53.87
2019-02-07T13:56:36.601Z,51.90
2019-02-07T13:59:23.337Z,51.70
2019-02-07T14:02:13.546Z,50.57
2019-02-07T14:04:59.294Z,48.77
2019-02-07T14:07:59.881Z,57.53
2019-02-07T14:10:53.946Z,49.47
2019-02-07T14:13:41.075Z,54.13
2019-02-07T14:16:28.270Z,52.73
2019-02-07T14:19:15.176Z,51.57
2019-02-07T14:22:09.434Z,61.13
2019-02-07T14:24:57.728Z,56.90
2019-02-07T14:27:44.486Z,59.20
2019-02-07T14:30:44.919Z,56.27
2019-02-07T14:33:39.107Z,60.97
2019-02-07T14:36:39.439Z,54.93
2019-02-07T14:39:25.156Z,55.07
2019-02-07T14:42:01.271Z,58.67
2019-02-07T14:44:52.421Z,62.60
2019-02-07T14:47:22.097Z,59.53
2019-02-07T14:49:51.198Z,61.30
2019-02-07T14:52:20.421Z,59.57
2019-02-07T14:54:49.308Z,59.27
2019-02-07T14:57:18.690Z,68.77
2019-02-07T14:59:48.238Z,65.30
2019-02-07T15:02:17.557Z,66.90
2019-02-07T15:04:46.403Z,68.23
2019-02-07T15:07:15.611Z,66.67
2019-02-07T15:09:45.078Z,77.20
2019-02-07T15:12:14.042Z,70.53
2019-02-07T15:14:43.048Z,75.00
2019-02-07T15:17:13.962Z,71.87
2019-02-07T15:19:42.851Z,72.80
2019-02-07T15:22:11.865Z,72.70
2019-02-07T15:24:40.830Z,126.23
2019-02-07T15:27:09.998Z,74.73
2019-02-07T15:29:38.788Z,79.20
2019-02-07T15:32:08.005Z,92.47
2019-02-07T15:34:36.875Z,63.73
2019-02-07T15:37:06.022Z,75.40
2019-02-07T15:39:34.985Z,68.67
2019-02-07T15:42:04.203Z,71.90
2019-02-07T15:44:33.749Z,71.07
2019-02-07T15:47:03.610Z,66.57
2019-02-07T15:49:33.103Z,67.77
2019-02-07T15:52:02.326Z,76.23
2019-02-07T15:54:31.242Z,74.90
2019-02-07T15:57:00.405Z,75.43
2019-02-07T15:59:40.639Z,72.83
2019-02-07T16:02:29.170Z,64.10
2019-02-07T16:04:58.667Z,62.93
2019-02-07T16:07:27.758Z,67.03
2019-02-07T16:09:57.011Z,62.10
2019-02-07T16:12:26.891Z,66.20
2019-02-07T16:14:56.165Z,66.80
2019-02-07T16:17:25.368Z,67.77
2019-02-07T16:19:54.610Z,70.47
2019-02-07T16:22:24.453Z,71.50
2019-02-07T16:24:54.118Z,67.23
2019-02-07T16:27:23.466Z,71.33
2019-02-07T16:29:52.558Z,78.27
2019-02-07T16:32:22.396Z,74.63
2019-02-07T16:34:51.640Z,77.80
2019-02-07T16:37:20.994Z,77.50
2019-02-07T16:39:50.572Z,70.23
2019-02-07T16:42:19.533Z,76.40
2019-02-07T16:44:48.758Z,81.07
2019-02-07T16:47:18.182Z,74.57
2019-02-07T16:49:47.403Z,72.33
2019-02-07T16:52:16.358Z,73.80
2019-02-07T16:54:45.549Z,67.43
2019-02-07T16:57:15.219Z,74.73
2019-02-07T16:59:44.703Z,79.80
2019-02-07T17:02:14.309Z,76.77
2019-02-07T17:04:43.537Z,81.13
2019-02-07T17:07:12.730Z,86.40
2019-02-07T17:09:46.925Z,81.00
2019-02-07T17:12:16.133Z,84.87
2019-02-07T17:14:45.379Z,77.77
2019-02-07T17:17:14.806Z,88.67
2019-02-07T17:19:44.387Z,83.33
2019-02-07T17:22:13.626Z,72.13
2019-02-07T17:24:43.326Z,79.57
2019-02-07T17:27:12.793Z,78.23
2019-02-07T17:29:42.230Z,72.97
2019-02-07T17:32:11.646Z,72.20
2019-02-07T17:34:40.718Z,73.17
2019-02-07T17:37:10.041Z,79.53
2019-02-07T17:39:38.829Z,78.17
2019-02-07T17:42:07.668Z,82.10
2019-02-07T17:44:36.938Z,85.23
2019-02-07T17:47:06.269Z,77.90
2019-02-07T17:49:35.458Z,74.93
2019-02-07T17:52:05.005Z,78.60
2019-02-07T17:54:34.232Z,79.30
2019-02-07T17:57:03.530Z,80.47
2019-02-07T17:59:32.983Z,73.57
2019-02-07T18:02:01.897Z,95.67
2019-02-07T18:04:30.891Z,85.50
2019-02-07T18:07:00.297Z,83.90
2019-02-07T18:09:29.405Z,91.30
2019-02-07T18:11:58.875Z,81.00
2019-02-07T18:14:28.901Z,74.10
2019-02-07T18:16:57.966Z,71.50
2019-02-07T18:19:27.035Z,78.03
2019-02-07T18:21:57.372Z,80.17
2019-02-07T18:24:26.555Z,77.03
2019-02-07T18:26:56.958Z,66.70
2019-02-07T18:29:25.883Z,85.90
2019-02-07T18:31:55.088Z,74.00
2019-02-07T18:34:24.037Z,75.33
2019-02-07T18:36:53.225Z,79.47
2019-02-07T18:39:22.453Z,83.47
2019-02-07T18:41:52.088Z,81.77
2019-02-07T18:44:21.748Z,66.80
2019-02-07T18:46:50.638Z,73.43
2019-02-07T18:49:19.452Z,64.17
2019-02-07T18:51:48.451Z,69.43
2019-02-07T18:54:18.079Z,70.13
2019-02-07T18:56:47.615Z,66.80
2019-02-07T18:59:16.803Z,69.03
2019-02-07T19:01:45.898Z,70.60
2019-02-07T19:04:15.622Z,69.93
2019-02-07T19:06:44.646Z,66.10
2019-02-07T19:09:13.886Z,67.03
2019-02-07T19:11:43.063Z,63.70
2019-02-07T19:14:12.605Z,76.47
2019-02-07T19:16:42.174Z,90.77
2019-02-07T19:19:11.406Z,78.13
2019-02-07T19:21:40.980Z,68.63
2019-02-07T19:24:10.487Z,62.70
2019-02-07T19:26:39.690Z,64.73
2019-02-07T19:29:09.189Z,74.53
2019-02-07T19:31:38.378Z,75.77
2019-02-07T19:34:07.646Z,77.53
2019-02-07T19:36:36.953Z,73.70
2019-02-07T19:39:09.665Z,65.27
2019-02-07T19:41:38.920Z,71.30
2019-02-07T19:44:08.926Z,78.07
2019-02-07T19:46:38.849Z,67.37
2019-02-07T19:49:08.391Z,72.33
2019-02-07T19:51:41.298Z,69.70
2019-02-07T19:54:10.816Z,84.87
2019-02-07T19:56:39.978Z,65.40
2019-02-07T19:59:09.269Z,70.90
2019-02-07T20:01:38.253Z,86.07
2019-02-07T20:04:07.389Z,67.90
2019-02-07T20:06:36.479Z,80.13
2019-02-07T20:09:11.589Z,75.23
2019-02-07T20:11:41.082Z,75.07
2019-02-07T20:14:10.236Z,84.40
2019-02-07T20:16:39.563Z,80.53
2019-02-07T20:19:08.618Z,95.00
2019-02-07T20:21:38.053Z,84.17
2019-02-07T20:24:07.219Z,86.90
2019-02-07T20:26:36.390Z,101.70
2019-02-07T20:29:05.950Z,94.00
2019-02-07T20:31:35.118Z,93.80
2019-02-07T20:34:04.074Z,85.60
2019-02-07T20:36:32.919Z,76.87
2019-02-07T20:39:02.242Z,71.57
2019-02-07T20:41:34.401Z,82.10
2019-02-07T20:44:17.305Z,70.80
2019-02-07T20:46:47.672Z,59.53
2019-02-07T20:49:16.886Z,69.07
2019-02-07T20:51:48.783Z,71.27
2019-02-07T20:54:17.706Z,71.70
2019-02-07T20:56:46.906Z,72.03
2019-02-07T20:59:16.518Z,70.03
2019-02-07T21:01:45.763Z,80.03
2019-02-07T21:04:15.303Z,77.70
2019-02-07T21:06:44.442Z,79.93
2019-02-07T21:09:13.366Z,89.33
2019-02-07T21:11:42.790Z,78.50
2019-02-07T21:14:11.993Z,81.53
2019-02-07T21:16:41.594Z,103.23
2019-02-07T21:19:10.846Z,86.23
2019-02-07T21:21:42.622Z,104.40
2019-02-07T21:24:11.798Z,92.70
2019-02-07T21:26:41.279Z,100.07
2019-02-07T21:29:10.190Z,104.07
2019-02-07T21:31:39.763Z,89.50
2019-02-07T21:34:08.636Z,102.50
2019-02-07T21:36:37.543Z,102.63
2019-02-07T21:39:10.881Z,108.20
2019-02-07T21:41:40.401Z,96.07
2019-02-07T21:44:09.614Z,112.43
2019-02-07T21:46:39.703Z,106.07
2019-02-07T21:49:09.002Z,112.43
2019-02-07T21:51:38.427Z,102.57
2019-02-07T21:54:07.351Z,109.70
2019-02-07T21:56:36.263Z,91.33
2019-02-07T21:59:05.469Z,94.97
2019-02-07T22:01:34.889Z,101.97
2019-02-07T22:04:04.159Z,100.33
2019-02-07T22:06:33.261Z,104.30
2019-02-07T22:09:03.297Z,105.10
2019-02-07T22:11:32.123Z,86.77
2019-02-07T22:14:01.550Z,97.20
2019-02-07T22:16:30.508Z,83.43
2019-02-07T22:19:00.153Z,83.70
2019-02-07T22:21:29.369Z,98.67
2019-02-07T22:23:58.438Z,88.73
2019-02-07T22:26:27.890Z,84.73
2019-02-07T22:28:56.981Z,95.50
2019-02-07T22:31:26.562Z,89.70
2019-02-07T22:33:56.278Z,109.03
2019-02-07T22:36:25.366Z,107.07
2019-02-07T22:38:54.613Z,121.57
2019-02-07T22:41:24.034Z,103.70
2019-02-07T22:43:53.742Z,113.90
2019-02-07T22:46:23.144Z,109.43
2019-02-07T22:48:52.954Z,102.97
2019-02-07T22:51:22.193Z,117.60
2019-02-07T22:53:51.363Z,119.43
2019-02-07T22:56:20.229Z,146.97
2019-02-07T22:58:49.806Z,127.30
2019-02-07T23:01:45.148Z,122.83
2019-02-07T23:04:14.757Z,105.73
2019-02-07T23:06:43.697Z,136.13
2019-02-07T23:09:14.817Z,129.13
2019-02-07T23:11:43.696Z,95.73
2019-02-07T23:14:13.806Z,103.63
2019-02-07T23:16:43.086Z,95.17
2019-02-07T23:19:12.750Z,146.57
2019-02-07T23:21:42.007Z,161.67
2019-02-07T23:24:11.254Z,260.37
2019-02-07T23:26:40.440Z,296.53
2019-02-07T23:29:11.674Z,378.67
2019-02-07T23:31:41.112Z,367.10
2019-02-07T23:34:10.605Z,387.13
2019-02-07T23:36:39.870Z,391.00
2019-02-07T23:39:11.678Z,468.27
2019-02-07T23:41:40.580Z,327.77
2019-02-07T23:44:10.538Z,203.67
2019-02-07T23:46:39.715Z,414.80
2019-02-07T23:49:09.215Z,484.73
2019-02-07T23:51:38.406Z,479.57
2019-02-07T23:54:07.366Z,449.00
2019-02-07T23:56:36.370Z,517.50
2019-02-07T23:59:06.046Z,513.60
